»·PEaware :: QFA722 YMLT-YMML

QFA722 :: YMLT-YMML

FLIGHT INFORMATION

Flight Status: Arrived
Operator:
Qantas Airways
More flights by this operator :: More flights under this callsign
Pilot: Darren Q. (29875)
Aircraft: BOEING 737-800
(B738)
More flights by this aircraft type
Origin: YMLT Launceston
Australia
Destination: YMML Melbourne Intl
Australia
More flights between these airports :: More routes between these airports
Route: LT H215 WAREN W687 ML
File this flight plan on PilotEdge
Remarks: RMK / SIMBRIEF
Altitude:
(Current/Filed)
36,000ft
Speed:
(Current/Filed)
447kts
Departed: 05-Jun-20 04:29 AM
Arrived: 05-Jun-20 05:19 AM
Distance/Time
Traveled:
258nm/0:50
Distance/Time
To Go:
Arrived

Flight Plot

Page will automatically refresh every two minutes.

Flight plan parsing failed; only flown route is shown


Map Options




Map Legend


Flown Route
Filed Route
Departure Airport
Arrival Airport
Navaid (VOR, NDB)
Fix

Horizontal Profiles

Position Reports

Time Latitude Longitude Heading Altitude Ground
Speed
05-Jun-20 04:16 -41.542619 147.206293 292 568ft 0kts
05-Jun-20 04:17 -41.542619 147.206293 292 568ft 0kts
05-Jun-20 04:18 -41.542619 147.206293 292 568ft 0kts
05-Jun-20 04:19 -41.542619 147.206293 292 568ft 0kts
05-Jun-20 04:20 -41.542619 147.206293 292 568ft 0kts
05-Jun-20 04:21 -41.542619 147.206293 292 568ft 0kts
05-Jun-20 04:22 -41.542619 147.206293 292 568ft 0kts
05-Jun-20 04:23 -41.542619 147.206293 292 568ft 0kts
05-Jun-20 04:24 -41.542619 147.206293 292 568ft 0kts
05-Jun-20 04:25 -41.542619 147.206293 292 568ft 0kts
05-Jun-20 04:26 -41.542619 147.206293 292 568ft 0kts
05-Jun-20 04:27 -41.543255 147.207480 147 566ft 18kts
05-Jun-20 04:28 -41.551144 147.214230 148 563ft 45kts
05-Jun-20 04:29 -41.550336 147.215403 327 559ft 51kts
05-Jun-20 04:30 -41.512544 147.187831 334 2658ft 218kts
05-Jun-20 04:31 -41.447881 147.160813 338 6146ft 274kts
05-Jun-20 04:32 -41.375813 147.121804 338 9650ft 287kts
05-Jun-20 04:33 -41.297949 147.079701 338 13294ft 327kts
05-Jun-20 04:34 -41.210059 147.032304 338 17112ft 360kts
05-Jun-20 04:35 -41.114899 146.981138 338 20867ft 377kts
05-Jun-20 04:36 -41.017216 146.928828 338 24449ft 381kts
05-Jun-20 04:37 -40.920990 146.877409 338 27978ft 369kts
05-Jun-20 04:38 -40.828953 146.828377 338 31327ft 344kts
05-Jun-20 04:39 -40.745763 146.784180 338 34519ft 298kts
05-Jun-20 04:40 -40.674132 146.746226 338 36006ft 286kts
05-Jun-20 04:41 -40.594032 146.703905 338 36052ft 333kts
05-Jun-20 04:42 -40.500932 146.654857 338 36070ft 384kts
05-Jun-20 04:43 -40.393824 146.598609 338 36084ft 436kts
05-Jun-20 04:44 -40.274072 146.535947 338 36036ft 469kts
05-Jun-20 04:45 -40.158539 146.475703 338 36004ft 457kts
05-Jun-20 04:46 -40.040697 146.414489 338 35999ft 457kts
05-Jun-20 04:47 -39.921996 146.353229 338 35999ft 457kts
05-Jun-20 04:48 -39.804128 146.292716 338 35999ft 457kts
05-Jun-20 04:49 -39.686457 146.232525 338 35999ft 457kts
05-Jun-20 04:50 -39.567925 146.172117 338 35999ft 457kts
05-Jun-20 04:51 -39.449933 146.112205 338 35999ft 457kts
05-Jun-20 04:52 -39.332381 146.052734 338 35111ft 446kts
05-Jun-20 04:53 -39.219394 145.995772 338 33279ft 429kts
05-Jun-20 04:54 -39.110393 145.941010 338 31475ft 418kts
05-Jun-20 04:55 -39.003805 145.887635 338 29659ft 406kts
05-Jun-20 04:56 -38.900066 145.835855 338 27802ft 395kts
05-Jun-20 04:57 -38.800510 145.786316 338 25798ft 382kts
05-Jun-20 04:58 -38.703006 145.737941 338 23644ft 370kts
05-Jun-20 05:00 -38.608692 145.691284 338 21528ft 359kts
05-Jun-20 05:01 -38.517507 145.646300 338 19469ft 349kts
05-Jun-20 05:02 -38.432174 145.596438 331 17442ft 340kts
05-Jun-20 05:03 -38.349962 145.539920 331 15433ft 332kts
05-Jun-20 05:04 -38.269816 145.484848 331 13431ft 325kts
05-Jun-20 05:05 -38.208598 145.442868 331 12191ft 310kts
05-Jun-20 05:06 -38.133788 145.391678 331 10621ft 298kts
05-Jun-20 05:07 -38.061600 145.342395 332 9116ft 279kts
05-Jun-20 05:08 -37.998259 145.294267 324 7663ft 256kts
05-Jun-20 05:09 -37.942673 145.242499 323 5823ft 241kts
05-Jun-20 05:10 -37.889179 145.192566 323 3999ft 234kts
05-Jun-20 05:11 -37.837478 145.144392 323 2495ft 215kts
05-Jun-20 05:12 -37.796628 145.106381 323 2300ft 183kts
05-Jun-20 05:13 -37.757091 145.069651 323 1931ft 180kts
05-Jun-20 05:14 -37.716959 145.032420 323 1600ft 174kts
05-Jun-20 05:15 -37.679669 144.997867 323 1600ft 166kts
05-Jun-20 05:16 -37.668081 144.944774 275 1610ft 164kts
05-Jun-20 05:17 -37.665169 144.887720 275 1292ft 164kts
05-Jun-20 05:17 -37.661730 144.840763 270 442ft 137kts
05-Jun-20 05:19 -37.664520 144.828990 95 441ft 17kts
05-Jun-20 05:19 -37.665059 144.838496 94 441ft 40kts
05-Jun-20 05:21 -37.665567 144.850557 172 441ft 20kts
05-Jun-20 05:21 -37.666929 144.850060 260 441ft 7kts
05-Jun-20 05:22 -37.729105 145.043683 323 1652ft 179kts
05-Jun-20 05:23 -37.690853 145.008225 323 1587ft 163kts
05-Jun-20 05:24 -37.669417 144.962344 275 1608ft 159kts
05-Jun-20 05:25 -37.661736 144.841316 268 442ft 138kts

Navigation Log

Ident Type
Flight plan parsing failed, navigation log unavailable